sensor_id;sensor_type;location;lat;lon;timestamp;pressure;altitude;pressure_sealevel;temperature;humidity
76794;BME280;65745;50.278;18.192;2023-11-22T00:01:04;100044.85;;;1.51;93.16
76794;BME280;65745;50.278;18.192;2023-11-22T00:03:37;100048.83;;;1.49;93.09
76794;BME280;65745;50.278;18.192;2023-11-22T00:06:10;100050.98;;;1.51;93.19
76794;BME280;65745;50.278;18.192;2023-11-22T00:08:42;100051.88;;;1.52;93.15
76794;BME280;65745;50.278;18.192;2023-11-22T00:11:14;100053.71;;;1.54;93.46
76794;BME280;65745;50.278;18.192;2023-11-22T00:13:46;100053.53;;;1.57;93.44
76794;BME280;65745;50.278;18.192;2023-11-22T00:16:19;100059.62;;;1.59;93.46
76794;BME280;65745;50.278;18.192;2023-11-22T00:18:51;100064.35;;;1.62;93.40
76794;BME280;65745;50.278;18.192;2023-11-22T00:21:23;100064.64;;;1.64;93.44
76794;BME280;65745;50.278;18.192;2023-11-22T00:23:56;100067.41;;;1.68;93.61
76794;BME280;65745;50.278;18.192;2023-11-22T00:26:28;100069.23;;;1.70;93.31
76794;BME280;65745;50.278;18.192;2023-11-22T00:29:02;100070.76;;;1.73;93.09
76794;BME280;65745;50.278;18.192;2023-11-22T00:31:34;100077.22;;;1.76;93.21
76794;BME280;65745;50.278;18.192;2023-11-22T00:34:06;100077.91;;;1.76;92.86
76794;BME280;65745;50.278;18.192;2023-11-22T00:36:38;100082.46;;;1.76;92.91
76794;BME280;65745;50.278;18.192;2023-11-22T00:39:11;100082.27;;;1.75;92.79
76794;BME280;65745;50.278;18.192;2023-11-22T00:41:44;100089.92;;;1.76;93.03
76794;BME280;65745;50.278;18.192;2023-11-22T00:44:17;100092.55;;;1.74;93.05
76794;BME280;65745;50.278;18.192;2023-11-22T00:46:49;100092.85;;;1.73;93.18
76794;BME280;65745;50.278;18.192;2023-11-22T00:49:21;100088.91;;;1.70;93.05
76794;BME280;65745;50.278;18.192;2023-11-22T00:51:54;100092.27;;;1.69;93.04
76794;BME280;65745;50.278;18.192;2023-11-22T00:54:27;100095.98;;;1.66;93.06
76794;BME280;65745;50.278;18.192;2023-11-22T00:57:00;100097.05;;;1.64;93.38
76794;BME280;65745;50.278;18.192;2023-11-22T00:59:32;100097.15;;;1.68;93.54
76794;BME280;65745;50.278;18.192;2023-11-22T01:02:04;100104.36;;;1.70;93.15
76794;BME280;65745;50.278;18.192;2023-11-22T01:04:37;100103.85;;;1.73;92.99
76794;BME280;65745;50.278;18.192;2023-11-22T01:07:09;100106.60;;;1.76;93.28
76794;BME280;65745;50.278;18.192;2023-11-22T01:09:41;100111.43;;;1.75;92.69
76794;BME280;65745;50.278;18.192;2023-11-22T01:12:13;100111.73;;;1.71;92.78
76794;BME280;65745;50.278;18.192;2023-11-22T01:14:45;100105.06;;;1.73;92.92
76794;BME280;65745;50.278;18.192;2023-11-22T01:17:17;100103.11;;;1.83;92.66
76794;BME280;65745;50.278;18.192;2023-11-22T01:19:49;100102.79;;;1.92;92.83
76794;BME280;65745;50.278;18.192;2023-11-22T01:22:24;100105.04;;;1.93;92.96
76794;BME280;65745;50.278;18.192;2023-11-22T01:24:56;100109.84;;;1.91;93.23
76794;BME280;65745;50.278;18.192;2023-11-22T01:27:28;100109.56;;;1.89;92.97
76794;BME280;65745;50.278;18.192;2023-11-22T01:30:00;100109.29;;;1.88;92.61
76794;BME280;65745;50.278;18.192;2023-11-22T01:32:34;100111.70;;;1.82;92.43
76794;BME280;65745;50.278;18.192;2023-11-22T01:35:08;100110.91;;;1.77;92.20
76794;BME280;65745;50.278;18.192;2023-11-22T01:37:40;100112.91;;;1.71;91.69
76794;BME280;65745;50.278;18.192;2023-11-22T01:40:14;100116.25;;;1.64;91.80
76794;BME280;65745;50.278;18.192;2023-11-22T01:42:47;100120.86;;;1.59;91.62
76794;BME280;65745;50.278;18.192;2023-11-22T01:45:19;100127.09;;;1.55;92.11
76794;BME280;65745;50.278;18.192;2023-11-22T01:47:51;100132.78;;;1.54;92.19
76794;BME280;65745;50.278;18.192;2023-11-22T01:50:24;100136.09;;;1.55;92.79
76794;BME280;65745;50.278;18.192;2023-11-22T01:52:57;100139.63;;;1.58;92.66
76794;BME280;65745;50.278;18.192;2023-11-22T01:55:29;100149.81;;;1.58;92.75
76794;BME280;65745;50.278;18.192;2023-11-22T01:58:01;100151.21;;;1.55;92.47
76794;BME280;65745;50.278;18.192;2023-11-22T02:00:43;100155.18;;;1.48;92.39
76794;BME280;65745;50.278;18.192;2023-11-22T02:03:15;100153.98;;;1.45;91.71
76794;BME280;65745;50.278;18.192;2023-11-22T02:05:48;100152.78;;;1.39;91.64
76794;BME280;65745;50.278;18.192;2023-11-22T02:08:21;100153.13;;;1.34;91.72
76794;BME280;65745;50.278;18.192;2023-11-22T02:11:00;100151.48;;;1.29;91.53
76794;BME280;65745;50.278;18.192;2023-11-22T02:13:34;100155.50;;;1.22;91.66
76794;BME280;65745;50.278;18.192;2023-11-22T02:16:07;100155.27;;;1.24;92.04
76794;BME280;65745;50.278;18.192;2023-11-22T02:18:39;100161.71;;;1.24;92.03
76794;BME280;65745;50.278;18.192;2023-11-22T02:21:12;100164.16;;;1.22;92.37
76794;BME280;65745;50.278;18.192;2023-11-22T02:23:45;100169.11;;;1.23;92.03
76794;BME280;65745;50.278;18.192;2023-11-22T02:26:19;100174.40;;;1.26;92.34
76794;BME280;65745;50.278;18.192;2023-11-22T02:28:51;100175.40;;;1.26;92.44
76794;BME280;65745;50.278;18.192;2023-11-22T02:31:23;100176.27;;;1.26;92.22
76794;BME280;65745;50.278;18.192;2023-11-22T02:33:55;100172.70;;;1.29;91.97
76794;BME280;65745;50.278;18.192;2023-11-22T02:36:27;100171.45;;;1.25;92.11
76794;BME280;65745;50.278;18.192;2023-11-22T02:38:59;100175.32;;;1.25;92.14
76794;BME280;65745;50.278;18.192;2023-11-22T02:41:31;100174.58;;;1.18;92.01
76794;BME280;65745;50.278;18.192;2023-11-22T02:44:04;100173.47;;;1.11;92.23
76794;BME280;65745;50.278;18.192;2023-11-22T02:46:38;100169.26;;;1.12;92.25
76794;BME280;65745;50.278;18.192;2023-11-22T02:49:10;100165.38;;;1.12;92.00
76794;BME280;65745;50.278;18.192;2023-11-22T02:51:42;100157.14;;;1.10;91.77
76794;BME280;65745;50.278;18.192;2023-11-22T02:54:14;100157.80;;;1.10;92.09
76794;BME280;65745;50.278;18.192;2023-11-22T02:56:46;100166.36;;;1.11;91.87
76794;BME280;65745;50.278;18.192;2023-11-22T02:59:19;100171.11;;;1.06;91.97
76794;BME280;65745;50.278;18.192;2023-11-22T03:01:53;100177.29;;;1.10;92.26
76794;BME280;65745;50.278;18.192;2023-11-22T03:04:25;100185.33;;;1.11;91.90
76794;BME280;65745;50.278;18.192;2023-11-22T03:06:57;100195.52;;;1.06;91.84
76794;BME280;65745;50.278;18.192;2023-11-22T03:09:29;100203.39;;;1.04;91.38
76794;BME280;65745;50.278;18.192;2023-11-22T03:12:01;100210.40;;;1.00;91.48
76794;BME280;65745;50.278;18.192;2023-11-22T03:14:34;100219.41;;;1.00;91.36
76794;BME280;65745;50.278;18.192;2023-11-22T03:17:07;100224.30;;;1.02;91.63
76794;BME280;65745;50.278;18.192;2023-11-22T03:19:40;100230.95;;;1.06;91.83
76794;BME280;65745;50.278;18.192;2023-11-22T03:22:12;100236.13;;;1.10;91.98
76794;BME280;65745;50.278;18.192;2023-11-22T03:24:44;100245.64;;;1.15;92.11
76794;BME280;65745;50.278;18.192;2023-11-22T03:27:18;100249.01;;;1.12;91.65
76794;BME280;65745;50.278;18.192;2023-11-22T03:29:51;100250.23;;;1.15;91.70
76794;BME280;65745;50.278;18.192;2023-11-22T03:32:25;100255.86;;;1.10;91.16
76794;BME280;65745;50.278;18.192;2023-11-22T03:34:59;100266.48;;;1.10;90.87
76794;BME280;65745;50.278;18.192;2023-11-22T03:37:31;100266.44;;;1.09;91.14
76794;BME280;65745;50.278;18.192;2023-11-22T03:40:03;100276.33;;;1.07;91.61
76794;BME280;65745;50.278;18.192;2023-11-22T03:42:37;100276.35;;;1.07;91.46
76794;BME280;65745;50.278;18.192;2023-11-22T03:45:10;100276.02;;;1.10;91.61
76794;BME280;65745;50.278;18.192;2023-11-22T03:47:44;100280.83;;;1.08;91.71
76794;BME280;65745;50.278;18.192;2023-11-22T03:50:17;100285.41;;;1.06;91.80
76794;BME280;65745;50.278;18.192;2023-11-22T03:52:51;100292.21;;;1.03;91.44
76794;BME280;65745;50.278;18.192;2023-11-22T03:55:23;100303.94;;;0.98;91.42
76794;BME280;65745;50.278;18.192;2023-11-22T03:57:55;100311.78;;;1.04;91.67
76794;BME280;65745;50.278;18.192;2023-11-22T04:00:27;100310.98;;;1.03;91.45
76794;BME280;65745;50.278;18.192;2023-11-22T04:02:59;100322.80;;;1.04;91.66
76794;BME280;65745;50.278;18.192;2023-11-22T04:05:32;100322.49;;;1.10;91.64
76794;BME280;65745;50.278;18.192;2023-11-22T04:08:05;100328.65;;;1.06;91.33
76794;BME280;65745;50.278;18.192;2023-11-22T04:10:39;100334.09;;;0.95;91.08
76794;BME280;65745;50.278;18.192;2023-11-22T04:13:11;100340.73;;;0.85;90.90
76794;BME280;65745;50.278;18.192;2023-11-22T04:15:43;100343.98;;;0.83;91.03
76794;BME280;65745;50.278;18.192;2023-11-22T04:18:16;100347.65;;;0.80;90.56
76794;BME280;65745;50.278;18.192;2023-11-22T04:20:48;100344.42;;;0.77;90.82
76794;BME280;65745;50.278;18.192;2023-11-22T04:23:20;100349.04;;;0.73;91.06
76794;BME280;65745;50.278;18.192;2023-11-22T04:25:53;100355.27;;;0.72;91.18
76794;BME280;65745;50.278;18.192;2023-11-22T04:28:25;100368.55;;;0.73;91.38
76794;BME280;65745;50.278;18.192;2023-11-22T04:30:59;100376.94;;;0.69;91.38
76794;BME280;65745;50.278;18.192;2023-11-22T04:33:31;100384.67;;;0.73;91.32
76794;BME280;65745;50.278;18.192;2023-11-22T04:36:03;100388.98;;;0.79;91.17
76794;BME280;65745;50.278;18.192;2023-11-22T04:38:35;100393.96;;;0.78;91.35
76794;BME280;65745;50.278;18.192;2023-11-22T04:41:08;100390.61;;;0.78;91.19
76794;BME280;65745;50.278;18.192;2023-11-22T04:43:40;100396.89;;;0.81;90.92
76794;BME280;65745;50.278;18.192;2023-11-22T04:46:12;100401.82;;;0.78;90.52
76794;BME280;65745;50.278;18.192;2023-11-22T04:48:44;100408.73;;;0.78;90.60
76794;BME280;65745;50.278;18.192;2023-11-22T04:51:18;100405.35;;;0.75;90.19
76794;BME280;65745;50.278;18.192;2023-11-22T04:53:50;100400.63;;;0.71;90.58
76794;BME280;65745;50.278;18.192;2023-11-22T04:56:23;100402.05;;;0.72;91.07
76794;BME280;65745;50.278;18.192;2023-11-22T04:58:55;100411.79;;;0.73;90.66
76794;BME280;65745;50.278;18.192;2023-11-22T05:01:32;100417.42;;;0.71;90.94
76794;BME280;65745;50.278;18.192;2023-11-22T05:04:05;100420.36;;;0.79;91.02
76794;BME280;65745;50.278;18.192;2023-11-22T05:06:37;100421.94;;;0.82;90.62
76794;BME280;65745;50.278;18.192;2023-11-22T05:09:09;100421.42;;;0.80;90.75
76794;BME280;65745;50.278;18.192;2023-11-22T05:11:41;100422.04;;;0.79;90.19
76794;BME280;65745;50.278;18.192;2023-11-22T05:14:14;100423.27;;;0.77;89.57
76794;BME280;65745;50.278;18.192;2023-11-22T05:16:46;100425.67;;;0.70;89.63
76794;BME280;65745;50.278;18.192;2023-11-22T05:19:18;100431.68;;;0.64;89.70
76794;BME280;65745;50.278;18.192;2023-11-22T05:21:52;100439.34;;;0.59;89.56
76794;BME280;65745;50.278;18.192;2023-11-22T05:24:24;100434.80;;;0.60;89.63
76794;BME280;65745;50.278;18.192;2023-11-22T05:26:56;100436.23;;;0.59;89.75
76794;BME280;65745;50.278;18.192;2023-11-22T05:29:28;100441.94;;;0.60;90.13
76794;BME280;65745;50.278;18.192;2023-11-22T05:32:12;100445.80;;;0.60;90.24
76794;BME280;65745;50.278;18.192;2023-11-22T05:34:44;100448.29;;;0.59;90.23
76794;BME280;65745;50.278;18.192;2023-11-22T05:37:16;100450.50;;;0.61;90.20
76794;BME280;65745;50.278;18.192;2023-11-22T05:39:48;100454.95;;;0.67;89.77
76794;BME280;65745;50.278;18.192;2023-11-22T05:42:20;100463.27;;;0.70;89.46
76794;BME280;65745;50.278;18.192;2023-11-22T05:44:52;100469.13;;;0.66;88.94
76794;BME280;65745;50.278;18.192;2023-11-22T05:47:24;100480.39;;;0.62;88.69
76794;BME280;65745;50.278;18.192;2023-11-22T05:49:56;100486.31;;;0.60;88.98
76794;BME280;65745;50.278;18.192;2023-11-22T05:52:28;100487.52;;;0.58;89.32
76794;BME280;65745;50.278;18.192;2023-11-22T05:55:00;100490.25;;;0.58;89.47
76794;BME280;65745;50.278;18.192;2023-11-22T05:57:34;100495.57;;;0.54;89.37
76794;BME280;65745;50.278;18.192;2023-11-22T06:00:08;100498.77;;;0.54;89.23
76794;BME280;65745;50.278;18.192;2023-11-22T06:02:41;100502.02;;;0.54;89.42
76794;BME280;65745;50.278;18.192;2023-11-22T06:05:13;100504.52;;;0.51;89.23
76794;BME280;65745;50.278;18.192;2023-11-22T06:07:45;100501.91;;;0.53;89.42
76794;BME280;65745;50.278;18.192;2023-11-22T06:10:18;100502.77;;;0.55;89.65
76794;BME280;65745;50.278;18.192;2023-11-22T06:12:50;100499.30;;;0.59;89.00
76794;BME280;65745;50.278;18.192;2023-11-22T06:15:22;100504.33;;;0.58;88.92
76794;BME280;65745;50.278;18.192;2023-11-22T06:17:54;100512.90;;;0.59;88.89
76794;BME280;65745;50.278;18.192;2023-11-22T06:20:27;100518.54;;;0.60;88.36
76794;BME280;65745;50.278;18.192;2023-11-22T06:22:59;100520.44;;;0.63;88.47
76794;BME280;65745;50.278;18.192;2023-11-22T06:25:31;100522.10;;;0.60;88.24
76794;BME280;65745;50.278;18.192;2023-11-22T06:28:03;100525.55;;;0.56;88.85
76794;BME280;65745;50.278;18.192;2023-11-22T06:30:35;100521.21;;;0.57;89.04
76794;BME280;65745;50.278;18.192;2023-11-22T06:33:08;100522.09;;;0.65;89.10
76794;BME280;65745;50.278;18.192;2023-11-22T06:35:41;100535.07;;;0.69;89.09
76794;BME280;65745;50.278;18.192;2023-11-22T06:38:13;100541.23;;;0.67;88.99
76794;BME280;65745;50.278;18.192;2023-11-22T06:40:46;100548.51;;;0.62;88.79
76794;BME280;65745;50.278;18.192;2023-11-22T06:43:18;100548.57;;;0.58;88.31
76794;BME280;65745;50.278;18.192;2023-11-22T06:45:50;100554.45;;;0.57;88.41
76794;BME280;65745;50.278;18.192;2023-11-22T06:48:22;100563.36;;;0.61;88.46
76794;BME280;65745;50.278;18.192;2023-11-22T06:50:54;100570.73;;;0.62;87.80
76794;BME280;65745;50.278;18.192;2023-11-22T06:53:27;100569.89;;;0.65;87.94
76794;BME280;65745;50.278;18.192;2023-11-22T06:55:59;100567.16;;;0.60;88.14
76794;BME280;65745;50.278;18.192;2023-11-22T06:58:32;100576.01;;;0.53;88.34
76794;BME280;65745;50.278;18.192;2023-11-22T07:01:04;100581.25;;;0.55;88.97
76794;BME280;65745;50.278;18.192;2023-11-22T07:03:36;100577.38;;;0.58;89.31
76794;BME280;65745;50.278;18.192;2023-11-22T07:06:10;100582.98;;;0.63;89.02
76794;BME280;65745;50.278;18.192;2023-11-22T07:08:45;100589.20;;;0.69;88.30
76794;BME280;65745;50.278;18.192;2023-11-22T07:11:24;100594.16;;;0.70;88.46
76794;BME280;65745;50.278;18.192;2023-11-22T07:13:56;100600.63;;;0.70;88.69
76794;BME280;65745;50.278;18.192;2023-11-22T07:16:29;100600.70;;;0.78;88.17
76794;BME280;65745;50.278;18.192;2023-11-22T07:19:01;100601.26;;;0.79;87.56
76794;BME280;65745;50.278;18.192;2023-11-22T07:21:34;100605.96;;;0.74;87.57
76794;BME280;65745;50.278;18.192;2023-11-22T07:24:09;100608.23;;;0.72;87.57
76794;BME280;65745;50.278;18.192;2023-11-22T07:26:45;100615.46;;;0.67;87.25
76794;BME280;65745;50.278;18.192;2023-11-22T07:29:17;100619.27;;;0.63;87.58
76794;BME280;65745;50.278;18.192;2023-11-22T07:31:50;100624.01;;;0.63;88.27
76794;BME280;65745;50.278;18.192;2023-11-22T07:34:22;100621.91;;;0.67;88.44
76794;BME280;65745;50.278;18.192;2023-11-22T07:36:54;100626.77;;;0.71;88.80
76794;BME280;65745;50.278;18.192;2023-11-22T07:39:26;100628.56;;;0.65;88.24
76794;BME280;65745;50.278;18.192;2023-11-22T07:41:59;100634.22;;;0.61;88.07
76794;BME280;65745;50.278;18.192;2023-11-22T07:44:31;100641.95;;;0.63;87.47
76794;BME280;65745;50.278;18.192;2023-11-22T07:47:04;100647.62;;;0.59;87.39
76794;BME280;65745;50.278;18.192;2023-11-22T07:49:40;100642.50;;;0.56;87.11
76794;BME280;65745;50.278;18.192;2023-11-22T07:52:13;100640.88;;;0.50;86.59
76794;BME280;65745;50.278;18.192;2023-11-22T07:54:45;100630.84;;;0.47;86.82
76794;BME280;65745;50.278;18.192;2023-11-22T07:57:17;100631.42;;;0.43;86.81
76794;BME280;65745;50.278;18.192;2023-11-22T07:59:51;100638.95;;;0.49;87.21
76794;BME280;65745;50.278;18.192;2023-11-22T08:02:26;100640.98;;;0.54;87.26
76794;BME280;65745;50.278;18.192;2023-11-22T08:04:59;100643.64;;;0.58;87.69
76794;BME280;65745;50.278;18.192;2023-11-22T08:07:32;100651.96;;;0.65;87.83
76794;BME280;65745;50.278;18.192;2023-11-22T08:10:06;100655.50;;;0.67;87.46
76794;BME280;65745;50.278;18.192;2023-11-22T08:12:40;100656.64;;;0.67;86.92
76794;BME280;65745;50.278;18.192;2023-11-22T08:15:12;100652.58;;;0.64;86.26
76794;BME280;65745;50.278;18.192;2023-11-22T08:17:44;100652.73;;;0.61;85.84
76794;BME280;65745;50.278;18.192;2023-11-22T08:20:17;100659.39;;;0.65;85.98
76794;BME280;65745;50.278;18.192;2023-11-22T08:22:50;100662.09;;;0.69;86.30
76794;BME280;65745;50.278;18.192;2023-11-22T08:25:22;100671.27;;;0.72;85.83
76794;BME280;65745;50.278;18.192;2023-11-22T08:27:54;100674.20;;;0.73;85.67
76794;BME280;65745;50.278;18.192;2023-11-22T08:30:26;100674.87;;;0.68;86.15
76794;BME280;65745;50.278;18.192;2023-11-22T08:32:59;100685.91;;;0.73;86.60
76794;BME280;65745;50.278;18.192;2023-11-22T08:35:31;100692.05;;;0.78;86.82
76794;BME280;65745;50.278;18.192;2023-11-22T08:38:04;100693.52;;;0.84;86.78
76794;BME280;65745;50.278;18.192;2023-11-22T08:40:40;100693.80;;;0.91;86.69
76794;BME280;65745;50.278;18.192;2023-11-22T08:43:12;100703.12;;;0.93;86.55
76794;BME280;65745;50.278;18.192;2023-11-22T08:45:44;100698.80;;;0.99;86.09
76794;BME280;65745;50.278;18.192;2023-11-22T08:48:19;100699.13;;;0.96;85.29
76794;BME280;65745;50.278;18.192;2023-11-22T08:50:51;100700.40;;;0.95;85.05
76794;BME280;65745;50.278;18.192;2023-11-22T08:53:26;100698.24;;;1.01;85.24
76794;BME280;65745;50.278;18.192;2023-11-22T08:56:01;100698.50;;;1.00;84.80
76794;BME280;65745;50.278;18.192;2023-11-22T08:58:35;100701.48;;;0.96;84.22
76794;BME280;65745;50.278;18.192;2023-11-22T09:01:07;100702.63;;;0.91;84.31
76794;BME280;65745;50.278;18.192;2023-11-22T09:03:41;100702.74;;;0.88;84.90
76794;BME280;65745;50.278;18.192;2023-11-22T09:06:14;100707.58;;;0.91;85.27
76794;BME280;65745;50.278;18.192;2023-11-22T09:08:47;100706.65;;;0.90;85.03
76794;BME280;65745;50.278;18.192;2023-11-22T09:11:20;100703.95;;;0.95;85.01
76794;BME280;65745;50.278;18.192;2023-11-22T09:13:53;100715.59;;;1.04;85.24
76794;BME280;65745;50.278;18.192;2023-11-22T09:16:28;100727.59;;;1.08;84.44
76794;BME280;65745;50.278;18.192;2023-11-22T09:19:00;100735.55;;;1.10;83.94
76794;BME280;65745;50.278;18.192;2023-11-22T09:21:32;100736.62;;;1.16;84.11
76794;BME280;65745;50.278;18.192;2023-11-22T09:24:04;100732.63;;;1.10;83.19
76794;BME280;65745;50.278;18.192;2023-11-22T09:26:37;100743.58;;;1.04;83.54
76794;BME280;65745;50.278;18.192;2023-11-22T09:29:09;100745.80;;;1.04;83.55
76794;BME280;65745;50.278;18.192;2023-11-22T09:31:44;100749.77;;;0.98;83.01
76794;BME280;65745;50.278;18.192;2023-11-22T09:34:17;100754.36;;;0.93;83.58
76794;BME280;65745;50.278;18.192;2023-11-22T09:36:50;100751.34;;;0.96;84.31
76794;BME280;65745;50.278;18.192;2023-11-22T09:39:23;100755.04;;;0.96;84.72
76794;BME280;65745;50.278;18.192;2023-11-22T09:41:56;100757.73;;;0.95;84.53
76794;BME280;65745;50.278;18.192;2023-11-22T09:44:28;100756.73;;;0.93;84.31
76794;BME280;65745;50.278;18.192;2023-11-22T09:47:01;100750.77;;;0.91;83.82
76794;BME280;65745;50.278;18.192;2023-11-22T09:49:35;100744.94;;;0.90;83.72
76794;BME280;65745;50.278;18.192;2023-11-22T09:52:13;100730.94;;;0.93;83.72
76794;BME280;65745;50.278;18.192;2023-11-22T09:54:50;100717.40;;;0.93;83.55
76794;BME280;65745;50.278;18.192;2023-11-22T09:57:25;100715.58;;;0.90;83.42
76794;BME280;65745;50.278;18.192;2023-11-22T10:00:02;100713.95;;;0.88;83.15
76794;BME280;65745;50.278;18.192;2023-11-22T10:02:38;100715.10;;;0.87;83.49
76794;BME280;65745;50.278;18.192;2023-11-22T10:05:11;100712.80;;;0.89;83.28
76794;BME280;65745;50.278;18.192;2023-11-22T10:07:44;100718.64;;;0.87;83.42
76794;BME280;65745;50.278;18.192;2023-11-22T10:10:20;100721.30;;;0.91;83.72
76794;BME280;65745;50.278;18.192;2023-11-22T10:12:54;100716.80;;;0.97;83.93
76794;BME280;65745;50.278;18.192;2023-11-22T10:15:29;100722.81;;;1.05;84.26
76794;BME280;65745;50.278;18.192;2023-11-22T10:18:02;100732.15;;;1.08;84.18
76794;BME280;65745;50.278;18.192;2023-11-22T10:20:39;100742.05;;;1.18;84.28
76794;BME280;65745;50.278;18.192;2023-11-22T10:23:13;100749.27;;;1.29;83.65
76794;BME280;65745;50.278;18.192;2023-11-22T10:25:46;100750.31;;;1.41;83.49
76794;BME280;65745;50.278;18.192;2023-11-22T10:28:21;100744.61;;;1.47;83.26
76794;BME280;65745;50.278;18.192;2023-11-22T10:30:54;100734.56;;;1.49;82.64
76794;BME280;65745;50.278;18.192;2023-11-22T10:33:27;100733.63;;;1.43;81.90
76794;BME280;65745;50.278;18.192;2023-11-22T10:36:03;100733.23;;;1.40;82.43
76794;BME280;65745;50.278;18.192;2023-11-22T10:38:36;100732.30;;;1.41;82.47
76794;BME280;65745;50.278;18.192;2023-11-22T10:41:08;100733.95;;;1.43;82.44
76794;BME280;65745;50.278;18.192;2023-11-22T10:43:41;100741.20;;;1.45;82.18
76794;BME280;65745;50.278;18.192;2023-11-22T10:46:16;100749.70;;;1.40;82.18
76794;BME280;65745;50.278;18.192;2023-11-22T10:48:49;100752.70;;;1.32;81.57
76794;BME280;65745;50.278;18.192;2023-11-22T10:51:22;100761.60;;;1.31;82.19
76794;BME280;65745;50.278;18.192;2023-11-22T10:53:55;100762.54;;;1.30;82.14
76794;BME280;65745;50.278;18.192;2023-11-22T10:56:28;100763.33;;;1.26;82.41
76794;BME280;65745;50.278;18.192;2023-11-22T10:59:09;100768.95;;;1.29;82.95
76794;BME280;65745;50.278;18.192;2023-11-22T11:01:47;100774.41;;;1.34;83.59
76794;BME280;65745;50.278;18.192;2023-11-22T11:04:27;100781.42;;;1.45;83.97
76794;BME280;65745;50.278;18.192;2023-11-22T11:07:00;100785.75;;;1.48;84.07
76794;BME280;65745;50.278;18.192;2023-11-22T11:09:34;100780.84;;;1.48;83.59
76794;BME280;65745;50.278;18.192;2023-11-22T11:12:08;100775.95;;;1.52;83.39
76794;BME280;65745;50.278;18.192;2023-11-22T11:14:45;100779.50;;;1.51;82.69
76794;BME280;65745;50.278;18.192;2023-11-22T11:17:18;100776.53;;;1.45;82.27
76794;BME280;65745;50.278;18.192;2023-11-22T11:19:51;100778.23;;;1.45;81.92
76794;BME280;65745;50.278;18.192;2023-11-22T11:22:24;100778.34;;;1.37;81.41
76794;BME280;65745;50.278;18.192;2023-11-22T11:25:04;100780.34;;;1.32;81.50
76794;BME280;65745;50.278;18.192;2023-11-22T11:27:36;100785.02;;;1.33;81.51
76794;BME280;65745;50.278;18.192;2023-11-22T11:33:13;100787.16;;;1.25;81.44
76794;BME280;65745;50.278;18.192;2023-11-22T11:35:51;100788.92;;;1.21;81.44
76794;BME280;65745;50.278;18.192;2023-11-22T11:38:30;100790.86;;;1.22;81.14
76794;BME280;65745;50.278;18.192;2023-11-22T11:41:10;100794.70;;;1.21;81.48
76794;BME280;65745;50.278;18.192;2023-11-22T11:43:46;100797.67;;;1.13;81.11
76794;BME280;65745;50.278;18.192;2023-11-22T11:46:17;100797.99;;;1.10;81.19
76794;BME280;65745;50.278;18.192;2023-11-22T11:48:51;100807.02;;;1.09;81.81
76794;BME280;65745;50.278;18.192;2023-11-22T11:51:25;100816.95;;;1.07;82.30
76794;BME280;65745;50.278;18.192;2023-11-22T11:53:58;100810.25;;;1.13;82.81
76794;BME280;65745;50.278;18.192;2023-11-22T11:56:30;100802.19;;;1.21;82.87
76794;BME280;65745;50.278;18.192;2023-11-22T11:59:03;100794.05;;;1.34;82.34
76794;BME280;65745;50.278;18.192;2023-11-22T12:01:35;100791.02;;;1.44;81.44
76794;BME280;65745;50.278;18.192;2023-11-22T12:04:08;100789.41;;;1.38;81.23
76794;BME280;65745;50.278;18.192;2023-11-22T12:06:40;100797.14;;;1.32;81.07
76794;BME280;65745;50.278;18.192;2023-11-22T12:09:13;100800.36;;;1.26;80.63
76794;BME280;65745;50.278;18.192;2023-11-22T12:11:45;100804.58;;;1.22;80.43
76794;BME280;65745;50.278;18.192;2023-11-22T12:14:19;100803.88;;;1.07;80.37
76794;BME280;65745;50.278;18.192;2023-11-22T12:16:53;100803.19;;;0.98;80.71
76794;BME280;65745;50.278;18.192;2023-11-22T12:19:27;100803.63;;;0.92;80.74
76794;BME280;65745;50.278;18.192;2023-11-22T12:22:02;100806.57;;;0.91;80.54
76794;BME280;65745;50.278;18.192;2023-11-22T12:24:34;100801.95;;;0.93;80.81
76794;BME280;65745;50.278;18.192;2023-11-22T12:27:06;100795.74;;;0.91;81.13
76794;BME280;65745;50.278;18.192;2023-11-22T12:29:42;100793.09;;;0.87;80.93
76794;BME280;65745;50.278;18.192;2023-11-22T12:32:14;100799.11;;;0.84;81.45
76794;BME280;65745;50.278;18.192;2023-11-22T12:34:48;100801.78;;;0.81;81.69
76794;BME280;65745;50.278;18.192;2023-11-22T12:37:23;100802.63;;;0.85;82.13
76794;BME280;65745;50.278;18.192;2023-11-22T12:39:56;100805.57;;;0.86;82.10
76794;BME280;65745;50.278;18.192;2023-11-22T12:42:28;100798.64;;;0.89;82.19
76794;BME280;65745;50.278;18.192;2023-11-22T12:45:02;100793.85;;;0.93;81.72
76794;BME280;65745;50.278;18.192;2023-11-22T12:47:35;100790.88;;;0.99;81.52
76794;BME280;65745;50.278;18.192;2023-11-22T12:50:13;100787.20;;;1.04;81.12
76794;BME280;65745;50.278;18.192;2023-11-22T12:53:02;100786.58;;;0.98;80.98
76794;BME280;65745;50.278;18.192;2023-11-22T12:55:42;100793.91;;;0.96;80.78
76794;BME280;65745;50.278;18.192;2023-11-22T12:58:17;100798.08;;;0.95;81.36
76794;BME280;65745;50.278;18.192;2023-11-22T13:00:50;100790.68;;;0.98;81.10
76794;BME280;65745;50.278;18.192;2023-11-22T13:03:25;100790.55;;;1.01;80.97
76794;BME280;65745;50.278;18.192;2023-11-22T13:05:58;100797.23;;;1.00;80.95
76794;BME280;65745;50.278;18.192;2023-11-22T13:08:30;100798.85;;;0.99;80.83
76794;BME280;65745;50.278;18.192;2023-11-22T13:11:04;100806.61;;;0.98;80.37
76794;BME280;65745;50.278;18.192;2023-11-22T13:13:38;100816.24;;;0.93;80.33
76794;BME280;65745;50.278;18.192;2023-11-22T13:16:10;100831.85;;;0.88;80.48
76794;BME280;65745;50.278;18.192;2023-11-22T13:18:42;100826.89;;;0.85;81.19
76794;BME280;65745;50.278;18.192;2023-11-22T13:21:14;100829.89;;;0.92;81.64
76794;BME280;65745;50.278;18.192;2023-11-22T13:23:47;100832.58;;;0.96;81.42